Time;durP1;ratioP1;P1;durP2;ratioP2;P2;SDS_P1;SDS_P2;PMS_P1;PMS_P2;Temp;Humidity;BMP_temperature;BMP_pressure;BME280_temperature;BME280_humidity;BME280_pressure;Samples;Min_cycle;Max_cycle;Signal;HPM_P1;HPM_P2
2023/04/23 00:00:48;;;;;;;0.43;0.37;;;;;;;9.06;100.00;95345.75;5074777;28;20472;-59
2023/04/23 00:03:19;;;;;;;0.73;0.73;;;;;;;8.95;100.00;95342.28;5060208;28;20433;-59
2023/04/23 00:05:49;;;;;;;0.43;0.30;;;;;;;8.85;100.00;95350.16;5074363;28;20794;-59
2023/04/23 00:08:18;;;;;;;0.40;0.30;;;;;;;8.92;100.00;95340.16;5048833;28;20976;-59
2023/04/23 00:10:49;;;;;;;0.40;0.33;;;;;;;9.39;100.00;95347.97;5075012;28;20437;-59
2023/04/23 00:13:17;;;;;;;0.50;0.50;;;;;;;9.36;100.00;95336.06;5074006;28;20444;-59
2023/04/23 00:15:47;;;;;;;0.30;0.30;;;;;;;9.17;100.00;95350.03;5073022;28;20480;-59
2023/04/23 00:18:16;;;;;;;0.40;0.40;;;;;;;9.09;100.00;95347.88;5074958;28;20455;-58
2023/04/23 00:20:44;;;;;;;0.40;0.40;;;;;;;8.88;100.00;95358.34;5060877;28;20529;-58
2023/04/23 00:23:12;;;;;;;0.40;0.30;;;;;;;9.23;100.00;95349.00;5074566;28;20503;-58
2023/04/23 00:25:41;;;;;;;0.70;0.60;;;;;;;9.46;100.00;95345.91;5073983;28;20469;-58
2023/04/23 00:28:10;;;;;;;0.40;0.40;;;;;;;9.60;100.00;95354.91;5074493;28;20436;-58
2023/04/23 00:30:39;;;;;;;0.50;0.50;;;;;;;9.63;100.00;95345.66;5073419;28;20556;-58
2023/04/23 00:33:07;;;;;;;0.60;0.60;;;;;;;9.30;100.00;95347.69;5074184;28;20564;-58
2023/04/23 00:35:35;;;;;;;0.40;0.40;;;;;;;9.21;100.00;95340.53;5073529;28;20477;-58
2023/04/23 00:38:04;;;;;;;0.43;0.37;;;;;;;9.04;100.00;95335.44;5074142;28;20525;-58
2023/04/23 00:40:33;;;;;;;0.50;0.50;;;;;;;8.84;100.00;95288.56;5073200;28;20447;-58
2023/04/23 00:43:01;;;;;;;0.30;0.23;;;;;;;8.33;100.00;95297.31;5074613;28;20460;-59
2023/04/23 00:45:31;;;;;;;1.23;1.07;;;;;;;8.39;100.00;95337.75;5073431;28;20512;-59
2023/04/23 00:48:00;;;;;;;0.80;0.40;;;;;;;8.19;100.00;95343.66;5074240;28;20441;-58
2023/04/23 00:50:28;;;;;;;0.50;0.30;;;;;;;8.15;100.00;95347.84;5073790;28;20483;-58
2023/04/23 00:52:56;;;;;;;0.67;0.50;;;;;;;8.17;100.00;95341.25;5072873;28;20524;-58
2023/04/23 00:55:24;;;;;;;0.70;0.40;;;;;;;8.35;100.00;95340.09;5072096;28;20452;-58
2023/04/23 00:57:53;;;;;;;0.37;0.30;;;;;;;8.81;100.00;95351.72;5072541;28;20979;-58
2023/04/23 01:00:22;;;;;;;0.40;0.30;;;;;;;9.08;100.00;95346.31;5072799;28;21031;-58
2023/04/23 01:02:52;;;;;;;0.50;0.30;;;;;;;9.32;100.00;95350.06;5073646;28;20445;-59
2023/04/23 01:05:23;;;;;;;0.40;0.30;;;;;;;9.44;100.00;95346.13;5073218;28;20440;-59
2023/04/23 01:07:51;;;;;;;0.53;0.30;;;;;;;9.11;100.00;95351.06;5072918;28;20451;-59
2023/04/23 01:10:20;;;;;;;1.17;1.07;;;;;;;9.03;100.00;95357.66;5073144;28;20505;-59
2023/04/23 01:12:49;;;;;;;0.40;0.30;;;;;;;9.01;100.00;95358.94;5072340;28;20532;-59
2023/04/23 01:15:17;;;;;;;0.77;0.60;;;;;;;8.92;100.00;95366.56;5073503;28;20977;-58
2023/04/23 01:17:46;;;;;;;0.40;0.30;;;;;;;8.76;100.00;95370.19;5072668;28;20481;-58
2023/04/23 01:20:16;;;;;;;2.10;0.83;;;;;;;8.15;100.00;95332.00;5073520;28;20446;-58
2023/04/23 01:22:46;;;;;;;0.90;0.70;;;;;;;8.13;100.00;95384.25;5073328;28;20433;-56
2023/04/23 01:25:14;;;;;;;1.70;0.30;;;;;;;8.76;100.00;95386.84;5072433;28;20464;-57
2023/04/23 01:27:43;;;;;;;1.13;1.03;;;;;;;8.66;100.00;95381.50;5072022;28;20456;-58
2023/04/23 01:30:12;;;;;;;0.40;0.40;;;;;;;8.85;100.00;95353.59;5072864;28;20512;-57
2023/04/23 01:32:41;;;;;;;0.30;0.30;;;;;;;9.21;100.00;95378.31;5073747;28;20446;-57
2023/04/23 01:35:11;;;;;;;0.50;0.50;;;;;;;8.93;100.00;95358.38;5072514;28;21014;-57
2023/04/23 01:37:41;;;;;;;0.30;0.20;;;;;;;9.06;100.00;95372.97;5071526;28;20443;-57
2023/04/23 01:40:11;;;;;;;0.60;0.60;;;;;;;9.16;100.00;95375.66;5071933;28;20476;-57
2023/04/23 01:42:40;;;;;;;0.40;0.30;;;;;;;8.83;100.00;95376.84;5072571;28;20460;-57
2023/04/23 01:45:10;;;;;;;0.80;0.60;;;;;;;8.70;100.00;95374.63;5071908;28;20461;-58
2023/04/23 01:47:38;;;;;;;1.07;1.00;;;;;;;8.11;100.00;95367.88;5071772;28;20529;-57
2023/04/23 01:50:08;;;;;;;0.40;0.40;;;;;;;8.14;100.00;95372.66;5071438;28;21027;-57
2023/04/23 01:52:36;;;;;;;0.80;0.80;;;;;;;8.07;100.00;95370.22;5072533;28;20494;-57
2023/04/23 01:55:05;;;;;;;1.23;0.37;;;;;;;8.01;100.00;95375.72;5071701;28;20482;-58
2023/04/23 01:57:35;;;;;;;1.03;0.40;;;;;;;7.85;100.00;95369.50;5072331;28;20441;-58
2023/04/23 02:00:07;;;;;;;0.47;0.47;;;;;;;7.77;100.00;95375.22;5045947;28;20452;-58
2023/04/23 02:02:36;;;;;;;0.60;0.60;;;;;;;8.02;100.00;95369.41;5072085;28;20445;-58
2023/04/23 02:05:10;;;;;;;0.33;0.30;;;;;;;8.36;100.00;95369.94;5072064;28;20449;-58
2023/04/23 02:07:38;;;;;;;1.93;0.80;;;;;;;8.45;100.00;95368.44;5071262;28;20829;-58
2023/04/23 02:10:08;;;;;;;0.50;0.40;;;;;;;8.57;100.00;95367.19;5071141;28;20838;-59
2023/04/23 02:12:38;;;;;;;0.30;0.20;;;;;;;8.69;100.00;95367.78;5070054;28;20472;-58
2023/04/23 02:15:08;;;;;;;4.30;0.60;;;;;;;8.78;100.00;95366.22;5071554;28;20657;-58
2023/04/23 02:17:38;;;;;;;0.30;0.20;;;;;;;8.57;100.00;95303.78;5070996;28;20522;-58
2023/04/23 02:20:08;;;;;;;0.40;0.20;;;;;;;9.02;100.00;95373.75;5072438;28;20506;-57
2023/04/23 02:22:38;;;;;;;0.80;0.80;;;;;;;8.73;100.00;95373.34;5071417;28;20535;-58
2023/04/23 02:25:07;;;;;;;0.40;0.30;;;;;;;8.70;100.00;95372.00;5070855;28;20546;-58
2023/04/23 02:27:37;;;;;;;0.40;0.27;;;;;;;8.76;100.00;95378.91;5071427;28;20529;-58
2023/04/23 02:30:08;;;;;;;0.30;0.20;;;;;;;8.67;100.00;95367.25;5072548;28;20472;-58
2023/04/23 02:32:36;;;;;;;0.73;0.40;;;;;;;8.84;100.00;95373.16;5046202;28;20473;-58
2023/04/23 02:35:06;;;;;;;0.60;0.60;;;;;;;8.38;100.00;95373.09;5070050;28;20447;-58
2023/04/23 02:37:35;;;;;;;1.13;0.70;;;;;;;8.73;100.00;95378.63;5071762;28;20445;-58
2023/04/23 02:40:05;;;;;;;19.53;2.10;;;;;;;8.91;100.00;95378.19;5058120;28;20877;-58
2023/04/23 02:42:34;;;;;;;2.10;2.00;;;;;;;8.79;100.00;95351.97;5070680;28;20448;-58
2023/04/23 02:45:04;;;;;;;0.50;0.40;;;;;;;9.02;100.00;95376.41;5071156;28;20475;-58
2023/04/23 02:47:32;;;;;;;0.40;0.30;;;;;;;9.07;100.00;95376.41;5070884;28;20456;-58
2023/04/23 02:50:04;;;;;;;1.27;0.40;;;;;;;8.99;100.00;95376.91;5071507;28;21094;-58
2023/04/23 02:52:33;;;;;;;0.40;0.30;;;;;;;8.94;100.00;95377.69;5071934;28;20524;-58
2023/04/23 02:55:02;;;;;;;0.50;0.47;;;;;;;8.99;100.00;95374.25;5070759;28;20518;-59
2023/04/23 02:57:30;;;;;;;0.40;0.30;;;;;;;8.80;100.00;95327.13;5071665;28;20525;-58
2023/04/23 02:59:59;;;;;;;0.40;0.30;;;;;;;8.99;100.00;95374.25;5070201;28;20468;-58
2023/04/23 03:02:28;;;;;;;0.30;0.20;;;;;;;9.03;100.00;95373.50;5071664;28;20460;-58
2023/04/23 03:04:57;;;;;;;0.40;0.30;;;;;;;9.11;100.00;95373.00;5071324;28;20507;-59
2023/04/23 03:07:25;;;;;;;0.50;0.40;;;;;;;9.08;100.00;95376.19;5070765;28;20481;-58
2023/04/23 03:09:54;;;;;;;0.60;0.30;;;;;;;9.10;100.00;95375.91;5044900;28;20438;-58
2023/04/23 03:12:22;;;;;;;1.70;0.30;;;;;;;9.07;100.00;95387.00;5070261;28;20448;-59
2023/04/23 03:14:50;;;;;;;0.40;0.30;;;;;;;8.32;100.00;95381.00;5070459;28;20437;-59
2023/04/23 03:17:19;;;;;;;0.63;0.50;;;;;;;7.90;100.00;95385.38;5071522;28;20568;-59
2023/04/23 03:19:48;;;;;;;0.40;0.30;;;;;;;7.65;100.00;95385.94;5070372;28;20477;-59
2023/04/23 03:22:17;;;;;;;0.77;0.77;;;;;;;7.05;100.00;95353.66;5070704;28;20450;-59
2023/04/23 03:24:45;;;;;;;0.50;0.50;;;;;;;7.39;100.00;95381.44;5070704;28;20904;-59
2023/04/23 03:27:13;;;;;;;0.90;0.30;;;;;;;7.50;100.00;95379.72;5070960;28;20434;-59
2023/04/23 03:29:41;;;;;;;0.87;0.80;;;;;;;7.57;100.00;95388.22;5071254;28;20477;-59
2023/04/23 03:32:10;;;;;;;0.60;0.43;;;;;;;7.77;100.00;95385.00;5070767;28;20476;-59
2023/04/23 03:34:38;;;;;;;0.70;0.70;;;;;;;8.08;100.00;95384.22;5071136;28;20465;-59
2023/04/23 03:37:08;;;;;;;0.40;0.30;;;;;;;8.19;100.00;95381.41;5071162;28;20523;-59
2023/04/23 03:39:37;;;;;;;0.40;0.40;;;;;;;7.93;100.00;95378.81;5071383;28;20452;-60
2023/04/23 03:42:05;;;;;;;0.40;0.30;;;;;;;7.43;100.00;95316.63;5071280;28;20516;-59
2023/04/23 03:44:34;;;;;;;1.77;0.53;;;;;;;8.01;100.00;95384.44;5071069;28;20477;-59
2023/04/23 03:47:02;;;;;;;0.40;0.30;;;;;;;8.06;100.00;95383.66;5070759;28;20444;-59
2023/04/23 03:49:30;;;;;;;0.97;0.80;;;;;;;7.68;100.00;95392.56;5071237;28;20522;-58
2023/04/23 03:51:59;;;;;;;1.43;1.37;;;;;;;8.00;100.00;95390.75;5058101;28;20526;-59
2023/04/23 03:54:29;;;;;;;0.87;0.87;;;;;;;7.55;100.00;95356.03;5070807;28;20818;-59
2023/04/23 03:56:58;;;;;;;0.30;0.20;;;;;;;7.87;100.00;95390.38;5071419;28;20526;-59
2023/04/23 03:59:26;;;;;;;0.40;0.30;;;;;;;8.08;100.00;95402.69;5071279;28;20504;-59
2023/04/23 04:01:54;;;;;;;0.50;0.47;;;;;;;8.00;100.00;95398.66;5071052;28;20830;-58
2023/04/23 04:04:23;;;;;;;0.47;0.40;;;;;;;8.14;100.00;95397.22;5070979;28;20559;-58
2023/04/23 04:06:51;;;;;;;0.60;0.60;;;;;;;7.73;100.00;95402.34;5070567;28;20436;-59
2023/04/23 04:09:21;;;;;;;3.70;1.13;;;;;;;7.87;100.00;95406.97;5070969;28;20467;-58
2023/04/23 04:11:50;;;;;;;1.17;0.90;;;;;;;8.05;100.00;95432.22;5070838;28;20483;-58
2023/04/23 04:14:20;;;;;;;0.30;0.20;;;;;;;8.33;100.00;95413.50;5070457;28;20479;-59
2023/04/23 04:16:49;;;;;;;0.40;0.40;;;;;;;8.70;100.00;95403.72;5070822;28;20539;-58
2023/04/23 04:19:17;;;;;;;0.90;0.87;;;;;;;8.92;100.00;95409.66;5070508;28;20442;-58
2023/04/23 04:21:46;;;;;;;0.40;0.40;;;;;;;8.84;100.00;95417.28;5071042;28;20529;-58
2023/04/23 04:24:14;;;;;;;0.47;0.40;;;;;;;8.97;100.00;95408.91;5070376;28;20530;-58
2023/04/23 04:26:43;;;;;;;0.40;0.30;;;;;;;8.91;100.00;95431.06;5070691;28;20440;-58
2023/04/23 04:29:12;;;;;;;0.40;0.30;;;;;;;9.04;100.00;95424.50;5070303;28;20441;-58
2023/04/23 04:31:41;;;;;;;0.50;0.40;;;;;;;9.24;100.00;95417.47;5071541;28;20968;-58
2023/04/23 04:34:09;;;;;;;0.80;0.80;;;;;;;9.08;100.00;95425.63;5074627;28;20433;-59
2023/04/23 04:36:38;;;;;;;0.63;0.30;;;;;;;9.09;100.00;95421.91;5073976;28;20796;-57
2023/04/23 04:39:07;;;;;;;0.57;0.57;;;;;;;9.10;100.00;95428.78;5048204;28;20433;-58
2023/04/23 04:41:37;;;;;;;0.67;0.67;;;;;;;8.73;100.00;95378.63;5073939;28;20440;-58
2023/04/23 04:44:06;;;;;;;0.47;0.47;;;;;;;8.67;100.00;95428.00;5065851;28;20450;-57
2023/04/23 04:46:39;;;;;;;0.40;0.40;;;;;;;7.53;100.00;95322.00;5068953;28;20472;-58
2023/04/23 04:49:08;;;;;;;2.10;0.87;;;;;;;7.79;100.00;95431.19;5074136;28;20472;-58
2023/04/23 04:51:37;;;;;;;2.60;1.03;;;;;;;7.68;100.00;95438.22;5074034;28;20495;-58
2023/04/23 04:54:07;;;;;;;1.17;1.07;;;;;;;8.07;100.00;95438.06;5074148;28;20462;-57
2023/04/23 04:56:35;;;;;;;5.10;0.60;;;;;;;8.07;100.00;95370.22;5073421;28;20456;-58
2023/04/23 04:59:03;;;;;;;0.83;0.83;;;;;;;8.19;100.00;95439.50;5073899;28;20944;-57
2023/04/23 05:01:33;;;;;;;1.00;1.00;;;;;;;8.61;100.00;95436.94;5073456;28;21005;-58
2023/04/23 05:04:03;;;;;;;3.93;2.20;;;;;;;8.91;100.00;95437.16;5073218;28;20503;-59
2023/04/23 05:06:32;;;;;;;1.30;1.20;;;;;;;8.60;100.00;95392.31;5073354;28;20521;-59
2023/04/23 05:09:00;;;;;;;0.83;0.83;;;;;;;9.14;100.00;95392.84;5073361;28;20483;-59
2023/04/23 05:11:28;;;;;;;0.40;0.30;;;;;;;9.92;100.00;95437.56;5073653;28;20848;-59
2023/04/23 05:13:57;;;;;;;0.43;0.27;;;;;;;9.43;100.00;95416.00;5073345;28;21001;-59
2023/04/23 05:16:25;;;;;;;4.40;0.60;;;;;;;9.30;100.00;95432.34;5073397;28;20445;-59
2023/04/23 05:18:53;;;;;;;0.83;0.83;;;;;;;9.37;100.00;95438.19;5072830;28;20434;-59
2023/04/23 05:21:23;;;;;;;1.23;0.80;;;;;;;9.17;100.00;95429.34;5073081;28;20528;-60
2023/04/23 05:23:51;;;;;;;0.57;0.47;;;;;;;9.05;100.00;95434.84;5072942;28;20437;-60
2023/04/23 05:26:20;;;;;;;0.40;0.30;;;;;;;9.48;100.00;95439.03;5073230;28;20453;-60
2023/04/23 05:28:48;;;;;;;3.30;1.30;;;;;;;9.58;100.00;95439.84;5073446;28;20883;-59
2023/04/23 05:31:17;;;;;;;0.50;0.50;;;;;;;10.24;100.00;95445.31;5073338;28;20471;-60
2023/04/23 05:33:46;;;;;;;2.03;1.50;;;;;;;10.36;100.00;95445.84;5072571;28;20449;-58
2023/04/23 05:36:18;;;;;;;0.50;0.40;;;;;;;10.08;100.00;95447.13;5073506;28;20837;-59
2023/04/23 05:38:48;;;;;;;0.47;0.47;;;;;;;9.37;100.00;95387.91;5072773;28;20449;-58
2023/04/23 05:41:16;;;;;;;1.73;1.53;;;;;;;9.63;100.00;95443.56;5073219;28;20516;-59
2023/04/23 05:43:45;;;;;;;1.50;0.60;;;;;;;10.20;100.00;95445.03;5072369;28;20441;-58
2023/04/23 05:46:13;;;;;;;0.53;0.53;;;;;;;10.82;100.00;95441.34;5071872;28;20437;-58
2023/04/23 05:48:41;;;;;;;1.20;0.50;;;;;;;11.05;100.00;95445.28;5072911;28;20456;-58
2023/04/23 05:51:10;;;;;;;0.40;0.30;;;;;;;10.22;100.00;95455.38;5072553;28;20438;-58
2023/04/23 05:53:38;;;;;;;0.50;0.30;;;;;;;10.04;100.00;95424.84;5072216;28;20441;-58
2023/04/23 05:56:08;;;;;;;0.83;0.83;;;;;;;9.94;100.00;95448.66;5072323;28;20445;-58
2023/04/23 05:58:37;;;;;;;0.50;0.37;;;;;;;10.61;100.00;95448.50;5047267;28;20437;-58
2023/04/23 06:01:06;;;;;;;0.73;0.70;;;;;;;10.11;100.00;95451.09;5072540;28;20470;-58
2023/04/23 06:03:35;;;;;;;1.00;1.00;;;;;;;10.02;100.00;95445.50;5072752;28;20996;-59
2023/04/23 06:06:04;;;;;;;0.70;0.70;;;;;;;10.10;100.00;95413.22;5072365;28;20856;-59
2023/04/23 06:08:32;;;;;;;0.40;0.30;;;;;;;10.03;100.00;95460.34;5072557;28;20498;-59
2023/04/23 06:11:01;;;;;;;0.43;0.37;;;;;;;10.81;100.00;95456.44;5072285;28;20541;-60
2023/04/23 06:13:30;;;;;;;0.50;0.30;;;;;;;10.70;100.00;95449.56;5072736;28;20497;-59
2023/04/23 06:15:59;;;;;;;0.40;0.30;;;;;;;10.77;100.00;95444.00;5072127;28;20525;-59
2023/04/23 06:18:27;;;;;;;1.00;0.90;;;;;;;10.72;100.00;95457.25;5072600;28;20446;-60
2023/04/23 06:20:56;;;;;;;0.73;0.50;;;;;;;11.23;100.00;95448.13;5071880;28;20472;-59
2023/04/23 06:23:24;;;;;;;2.53;0.60;;;;;;;10.91;100.00;95441.56;5072104;28;20524;-59
2023/04/23 06:25:52;;;;;;;1.47;0.97;;;;;;;10.67;100.00;95459.91;5072017;28;20470;-59
2023/04/23 06:28:21;;;;;;;0.77;0.77;;;;;;;10.84;100.00;95455.13;5072216;28;20537;-59
2023/04/23 06:30:50;;;;;;;0.57;0.53;;;;;;;11.29;100.00;95456.88;5071401;28;21022;-60
2023/04/23 06:33:19;;;;;;;0.70;0.70;;;;;;;10.94;100.00;95447.16;5070005;28;20483;-60
2023/04/23 06:35:47;;;;;;;0.60;0.50;;;;;;;11.11;100.00;95442.34;5071509;28;20438;-60
2023/04/23 06:38:17;;;;;;;1.27;0.90;;;;;;;11.16;100.00;95457.44;5070261;28;20477;-60
2023/04/23 06:40:46;;;;;;;0.63;0.63;;;;;;;11.99;97.45;95447.88;5071369;28;20465;-60
2023/04/23 06:43:14;;;;;;;0.50;0.50;;;;;;;12.53;93.76;95434.47;5071339;28;20468;-60
2023/04/23 06:45:42;;;;;;;0.40;0.40;;;;;;;13.07;93.76;95444.94;5069501;28;20445;-60
2023/04/23 06:48:12;;;;;;;0.60;0.50;;;;;;;13.58;88.85;95437.19;5068461;28;20442;-60
2023/04/23 06:50:44;;;;;;;0.50;0.50;;;;;;;12.89;86.58;95437.63;5069763;28;20468;-60
2023/04/23 06:53:12;;;;;;;0.90;0.90;;;;;;;12.95;87.08;95447.16;5069553;28;20880;-60
2023/04/23 06:55:40;;;;;;;1.17;1.17;;;;;;;13.36;86.15;95448.34;5069503;28;20453;-60
2023/04/23 06:58:10;;;;;;;1.73;1.13;;;;;;;13.95;82.41;95439.91;5069636;28;20530;-60
2023/04/23 07:00:41;;;;;;;0.60;0.60;;;;;;;14.34;83.56;95442.34;5071098;28;20433;-60
2023/04/23 07:03:10;;;;;;;0.60;0.60;;;;;;;15.30;76.21;95435.41;5074174;28;20487;-59
2023/04/23 07:05:40;;;;;;;0.90;0.53;;;;;;;16.09;73.50;95420.72;5072014;28;20433;-60
2023/04/23 07:08:08;;;;;;;1.03;0.90;;;;;;;15.90;71.62;95439.56;5071114;28;20520;-60
2023/04/23 07:10:36;;;;;;;0.63;0.40;;;;;;;16.06;71.33;95435.50;5071627;28;20437;-60
2023/04/23 07:13:05;;;;;;;0.67;0.67;;;;;;;15.87;73.67;95438.28;5071455;28;20560;-61
2023/04/23 07:15:33;;;;;;;0.53;0.40;;;;;;;16.83;72.38;95429.97;5071593;28;20465;-61
2023/04/23 07:18:02;;;;;;;0.40;0.40;;;;;;;17.28;69.34;95420.78;5058452;28;20476;-59
2023/04/23 07:20:30;;;;;;;0.50;0.40;;;;;;;16.88;70.24;95433.31;5071236;28;20441;-59
2023/04/23 07:23:02;;;;;;;1.07;1.07;;;;;;;16.76;70.09;95421.59;5071132;28;20448;-57
2023/04/23 07:25:31;;;;;;;0.77;0.77;;;;;;;17.24;67.95;95441.25;5071135;28;21131;-61
2023/04/23 07:27:59;;;;;;;2.73;0.47;;;;;;;17.18;65.35;95369.38;5071445;28;20437;-61
2023/04/23 07:30:28;;;;;;;1.57;1.20;;;;;;;16.74;65.05;95402.38;5071245;28;20686;-62
2023/04/23 07:32:56;;;;;;;0.50;0.40;;;;;;;17.87;63.92;95422.13;5071179;28;20472;-61
2023/04/23 07:35:25;;;;;;;0.57;0.57;;;;;;;17.62;62.88;95423.63;5070882;28;20495;-63
2023/04/23 07:37:56;;;;;;;0.73;0.70;;;;;;;16.37;65.77;95417.66;5071482;28;20433;-62
2023/04/23 07:40:26;;;;;;;0.50;0.43;;;;;;;15.85;70.11;95421.75;5070844;28;20460;-62
2023/04/23 07:42:55;;;;;;;0.77;0.50;;;;;;;16.35;66.61;95422.53;5071113;28;20438;-62
2023/04/23 07:45:23;;;;;;;0.50;0.50;;;;;;;17.52;65.98;95410.53;5070986;28;20437;-64
2023/04/23 07:47:51;;;;;;;0.50;0.40;;;;;;;18.24;62.46;95410.03;5071104;28;20438;-64
2023/04/23 07:50:20;;;;;;;0.70;0.63;;;;;;;19.35;58.49;95417.97;5070939;28;20440;-65
2023/04/23 07:52:48;;;;;;;0.63;0.63;;;;;;;19.81;60.47;95405.63;5071010;28;20560;-66
2023/04/23 07:55:19;;;;;;;1.03;0.63;;;;;;;19.32;58.10;95410.56;5045132;28;20444;-68
2023/04/23 07:57:48;;;;;;;2.70;1.03;;;;;;;18.65;57.50;95405.00;5070800;28;20926;-67
2023/04/23 08:00:17;;;;;;;0.40;0.40;;;;;;;19.58;54.89;95391.66;5070977;28;20957;-68
2023/04/23 08:02:45;;;;;;;0.60;0.47;;;;;;;19.74;53.70;95399.94;5070910;28;20499;-71
2023/04/23 08:05:14;;;;;;;0.50;0.40;;;;;;;20.07;55.09;95392.78;5071063;28;20532;-70
2023/04/23 08:07:42;;;;;;;0.50;0.40;;;;;;;20.25;55.15;95389.69;5072974;28;20942;-69
2023/04/23 08:10:11;;;;;;;0.57;0.50;;;;;;;20.05;55.29;95392.31;5074933;28;20437;-67
2023/04/23 08:12:39;;;;;;;0.50;0.40;;;;;;;20.66;53.82;95380.00;5073566;28;20477;-65
2023/04/23 08:15:10;;;;;;;0.50;0.40;;;;;;;20.29;52.13;95376.34;5074455;28;20520;-65
2023/04/23 08:17:39;;;;;;;1.83;1.73;;;;;;;20.03;53.16;95383.81;5074395;28;21240;-64
2023/04/23 08:20:08;;;;;;;0.53;0.53;;;;;;;20.71;52.70;95379.78;5074681;28;20525;-64
2023/04/23 08:22:36;;;;;;;0.50;0.40;;;;;;;22.26;49.70;95368.72;5074257;28;20438;-66
2023/04/23 08:25:06;;;;;;;0.40;0.30;;;;;;;22.05;50.72;95362.69;5074491;28;20473;-67
2023/04/23 08:27:34;;;;;;;0.60;0.50;;;;;;;22.32;49.78;95351.13;5068425;28;20484;-66
2023/04/23 08:30:03;;;;;;;0.47;0.40;;;;;;;22.32;49.85;95302.53;5073992;28;20466;-65
2023/04/23 08:32:32;;;;;;;0.70;0.50;;;;;;;21.86;47.51;95317.38;5060865;28;20533;-64
2023/04/23 08:35:01;;;;;;;1.33;0.87;;;;;;;22.19;50.26;95352.28;5069690;28;20477;-62
2023/04/23 08:37:29;;;;;;;0.60;0.60;;;;;;;22.91;49.88;95353.16;5074389;28;20437;-63
2023/04/23 08:39:58;;;;;;;0.50;0.50;;;;;;;23.76;47.47;95348.75;5073818;28;20433;-63
2023/04/23 08:42:37;;;;;;;0.50;0.50;;;;;;;23.40;47.13;95345.56;5073692;28;20433;-64
2023/04/23 08:45:06;;;;;;;0.90;0.90;;;;;;;22.75;48.15;95342.31;5073765;28;20429;-66
2023/04/23 08:47:41;;;;;;;0.43;0.40;;;;;;;21.99;49.23;95337.81;5073958;28;20499;-65
2023/04/23 08:50:11;;;;;;;1.03;0.80;;;;;;;21.75;46.04;95339.75;5072825;28;20437;-66
2023/04/23 08:52:42;;;;;;;0.40;0.40;;;;;;;22.53;45.53;95327.44;5073108;28;20463;-65
2023/04/23 08:55:11;;;;;;;0.60;0.60;;;;;;;23.29;45.51;95326.34;5071382;28;20477;-62
2023/04/23 08:57:40;;;;;;;2.30;0.80;;;;;;;22.07;44.70;95301.03;5073126;28;20473;-63
2023/04/23 09:00:10;;;;;;;0.50;0.43;;;;;;;23.78;42.59;95319.41;5073958;28;20923;-63
2023/04/23 09:02:41;;;;;;;0.50;0.50;;;;;;;23.59;41.41;95305.84;5073354;28;20438;-63
2023/04/23 09:05:10;;;;;;;0.77;0.30;;;;;;;23.27;41.18;95301.56;5074179;28;20864;-64
2023/04/23 09:07:39;;;;;;;0.50;0.50;;;;;;;24.34;39.18;95309.03;5073488;28;20437;-63
2023/04/23 09:10:10;;;;;;;0.40;0.30;;;;;;;23.81;40.81;95315.22;5073648;28;20894;-63
2023/04/23 09:12:43;;;;;;;0.80;0.80;;;;;;;23.26;40.97;95308.09;5073185;28;20440;-59
2023/04/23 09:15:13;;;;;;;0.70;0.50;;;;;;;23.38;42.03;95318.09;5073479;28;20993;-64
2023/04/23 09:17:44;;;;;;;1.03;0.93;;;;;;;25.42;40.11;95305.22;5069393;28;20435;-63
2023/04/23 09:20:14;;;;;;;0.50;0.50;;;;;;;24.57;41.13;95246.78;5066584;28;20525;-63
2023/04/23 09:22:44;;;;;;;2.30;0.40;;;;;;;24.84;42.25;95286.44;5073778;28;20442;-62
2023/04/23 09:25:16;;;;;;;1.00;0.50;;;;;;;22.97;41.77;95252.53;5073325;28;20487;-63
2023/04/23 09:27:45;;;;;;;0.63;0.40;;;;;;;23.24;43.64;95259.78;5047804;28;21009;-64
2023/04/23 09:30:15;;;;;;;0.40;0.40;;;;;;;23.77;42.31;95203.38;5073082;28;20437;-62
2023/04/23 09:32:46;;;;;;;0.60;0.40;;;;;;;25.14;42.06;95287.34;5073524;28;20929;-64
2023/04/23 09:35:16;;;;;;;0.50;0.40;;;;;;;25.63;42.51;95251.28;5073119;28;20564;-63
2023/04/23 09:37:47;;;;;;;1.77;1.67;;;;;;;23.84;41.05;95290.94;5073315;28;20904;-63
2023/04/23 09:40:18;;;;;;;1.27;0.40;;;;;;;24.35;42.62;95277.31;5073140;28;20426;-64
2023/04/23 09:42:49;;;;;;;0.40;0.30;;;;;;;25.45;42.65;95278.16;5072811;28;21055;-63
2023/04/23 09:45:18;;;;;;;0.40;0.30;;;;;;;26.96;39.73;95260.31;5072844;28;20524;-63
2023/04/23 09:47:52;;;;;;;0.50;0.50;;;;;;;25.68;37.19;95265.31;5073167;28;20437;-64
2023/04/23 09:50:32;;;;;;;0.50;0.50;;;;;;;24.99;38.14;95277.41;5073011;28;20434;-63
2023/04/23 09:53:00;;;;;;;0.50;0.50;;;;;;;26.45;37.72;95262.06;5072683;28;20469;-64
2023/04/23 09:55:34;;;;;;;1.00;0.60;;;;;;;27.18;39.68;95264.00;5072874;28;20477;-61
2023/04/23 09:58:06;;;;;;;6.93;0.70;;;;;;;26.20;35.68;95223.75;5072047;28;20444;-62
2023/04/23 10:00:36;;;;;;;2.67;1.00;;;;;;;25.82;36.53;95251.16;5072212;28;20473;-61
2023/04/23 10:03:07;;;;;;;0.80;0.50;;;;;;;26.90;36.60;95248.19;5072399;28;20434;-61
2023/04/23 10:05:40;;;;;;;0.70;0.60;;;;;;;27.16;34.90;95235.59;5072238;28;20438;-60
2023/04/23 10:08:12;;;;;;;0.90;0.70;;;;;;;26.58;34.28;95228.03;5071763;28;20445;-62
2023/04/23 10:10:41;;;;;;;0.50;0.30;;;;;;;28.05;33.51;95227.66;5072164;28;20438;-62
2023/04/23 10:13:30;;;;;;;0.50;0.50;;;;;;;25.41;35.55;95233.09;5072153;28;20445;-63
2023/04/23 10:16:01;;;;;;;0.50;0.50;;;;;;;25.76;35.02;95220.84;5072107;28;20883;-63
2023/04/23 10:18:52;;;;;;;0.50;0.50;;;;;;;25.13;35.57;95217.94;5072011;28;20515;-62
2023/04/23 10:21:27;;;;;;;1.30;1.13;;;;;;;25.38;34.65;95215.59;5072256;28;20438;-62
2023/04/23 10:24:07;;;;;;;0.40;0.30;;;;;;;25.50;35.03;95201.84;5071659;28;20834;-62
2023/04/23 10:26:39;;;;;;;0.87;0.50;;;;;;;24.92;37.35;95173.47;5072151;28;20437;-62
2023/04/23 10:29:12;;;;;;;0.50;0.50;;;;;;;25.39;36.21;95197.41;5066292;28;20430;-62
2023/04/23 10:31:41;;;;;;;0.60;0.50;;;;;;;25.78;35.83;95201.44;5064965;28;20449;-62
2023/04/23 10:34:11;;;;;;;1.43;1.00;;;;;;;25.61;35.29;95196.56;5072121;28;20477;-62
2023/04/23 10:36:40;;;;;;;0.50;0.47;;;;;;;23.26;37.04;95208.03;5072022;28;20445;-62
2023/04/23 10:39:09;;;;;;;4.20;1.37;;;;;;;22.50;37.78;95201.16;5072034;28;20448;-65
2023/04/23 10:41:39;;;;;;;0.83;0.83;;;;;;;22.57;38.64;95195.94;5072189;28;20434;-68
2023/04/23 10:44:12;;;;;;;3.47;0.53;;;;;;;23.36;37.78;95199.41;5072198;28;20521;-71
2023/04/23 10:46:52;;;;;;;0.80;0.63;;;;;;;22.08;39.07;95159.56;5071605;28;20520;-70
2023/04/23 10:49:23;;;;;;;0.50;0.40;;;;;;;21.27;40.52;95132.97;5071537;28;20437;-64
2023/04/23 10:51:59;;;;;;;0.50;0.50;;;;;;;21.33;40.63;95178.22;5072013;28;20480;-64
2023/04/23 10:54:32;;;;;;;0.40;0.30;;;;;;;22.27;40.51;95178.56;5071141;28;20475;-63
2023/04/23 10:57:02;;;;;;;0.50;0.50;;;;;;;24.29;37.70;95171.16;5071724;28;20476;-67
2023/04/23 10:59:31;;;;;;;0.80;0.60;;;;;;;26.02;36.75;95167.59;5071976;28;20499;-64
2023/04/23 11:02:06;;;;;;;0.40;0.37;;;;;;;26.21;33.98;95159.34;5071598;28;20487;-66
2023/04/23 11:04:41;;;;;;;0.60;0.50;;;;;;;26.18;34.68;95160.06;5071134;28;20440;-66
2023/04/23 11:07:11;;;;;;;0.50;0.40;;;;;;;25.99;35.42;95158.28;5071549;28;20502;-68
2023/04/23 11:09:43;;;;;;;0.40;0.30;;;;;;;25.52;34.04;95160.78;5071402;28;20547;-68
2023/04/23 11:12:13;;;;;;;0.50;0.40;;;;;;;24.64;34.33;95160.19;5071589;28;20438;-67
2023/04/23 11:14:48;;;;;;;0.60;0.50;;;;;;;23.33;35.43;95097.31;5071308;28;21130;-68
2023/04/23 11:17:18;;;;;;;0.60;0.50;;;;;;;23.49;35.99;95154.88;5070913;28;20433;-66
2023/04/23 11:20:09;;;;;;;0.50;0.50;;;;;;;22.77;36.26;95171.75;5071796;28;20444;-64
2023/04/23 11:22:38;;;;;;;0.60;0.60;;;;;;;23.13;37.13;95166.81;5071138;28;20429;-64
2023/04/23 11:25:10;;;;;;;0.50;0.40;;;;;;;22.81;36.22;95118.56;5071154;28;20560;-64
2023/04/23 11:27:40;;;;;;;2.67;0.60;;;;;;;24.32;35.21;95140.66;5071002;28;20551;-65
2023/04/23 11:30:13;;;;;;;0.40;0.30;;;;;;;24.72;34.46;95144.84;5070954;28;20520;-64
2023/04/23 11:32:42;;;;;;;0.70;0.70;;;;;;;23.61;37.33;95141.22;5070871;28;20459;-63
2023/04/23 11:35:14;;;;;;;0.70;0.70;;;;;;;24.45;33.57;95157.53;5076199;28;20461;-67
2023/04/23 11:37:44;;;;;;;0.40;0.30;;;;;;;25.63;32.82;95142.69;5072205;28;20446;-68
2023/04/23 11:40:17;;;;;;;0.60;0.60;;;;;;;25.50;33.42;95154.94;5071273;28;20434;-68
2023/04/23 11:43:08;;;;;;;0.60;0.60;;;;;;;23.90;33.90;95153.41;5075643;28;20495;-66